sensor_id;sensor_type;location;lat;lon;timestamp;pressure;altitude;pressure_sealevel;temperature;humidity
54936;BME280;40838;50.676;7.838;2023-04-24T00:00:47;97002.84;;;7.91;100.00
54936;BME280;40838;50.676;7.838;2023-04-24T00:03:14;97003.91;;;7.19;100.00
54936;BME280;40838;50.676;7.838;2023-04-24T00:05:42;96991.53;;;7.14;100.00
54936;BME280;40838;50.676;7.838;2023-04-24T00:08:09;96994.13;;;6.58;100.00
54936;BME280;40838;50.676;7.838;2023-04-24T00:10:36;96984.16;;;6.92;100.00
54936;BME280;40838;50.676;7.838;2023-04-24T00:13:02;96984.94;;;7.50;100.00
54936;BME280;40838;50.676;7.838;2023-04-24T00:15:29;96969.94;;;7.92;100.00
54936;BME280;40838;50.676;7.838;2023-04-24T00:17:56;96971.19;;;7.80;100.00
54936;BME280;40838;50.676;7.838;2023-04-24T00:20:23;96980.00;;;8.50;100.00
54936;BME280;40838;50.676;7.838;2023-04-24T00:22:52;96972.81;;;8.50;100.00
54936;BME280;40838;50.676;7.838;2023-04-24T00:25:18;96973.22;;;8.44;100.00
54936;BME280;40838;50.676;7.838;2023-04-24T00:27:45;96965.94;;;8.49;100.00
54936;BME280;40838;50.676;7.838;2023-04-24T00:30:12;96966.06;;;8.58;100.00
54936;BME280;40838;50.676;7.838;2023-04-24T00:32:39;96955.16;;;8.32;100.00
54936;BME280;40838;50.676;7.838;2023-04-24T00:35:07;96970.78;;;7.41;100.00
54936;BME280;40838;50.676;7.838;2023-04-24T00:37:33;96959.16;;;8.02;100.00
54936;BME280;40838;50.676;7.838;2023-04-24T00:40:03;96967.72;;;8.26;100.00
54936;BME280;40838;50.676;7.838;2023-04-24T00:42:30;96963.50;;;8.39;100.00
54936;BME280;40838;50.676;7.838;2023-04-24T00:44:57;96960.38;;;7.77;100.00
54936;BME280;40838;50.676;7.838;2023-04-24T00:47:25;96955.28;;;7.48;100.00
54936;BME280;40838;50.676;7.838;2023-04-24T00:49:52;96962.38;;;6.58;100.00
54936;BME280;40838;50.676;7.838;2023-04-24T00:52:18;96957.28;;;7.56;100.00
54936;BME280;40838;50.676;7.838;2023-04-24T00:54:46;96958.63;;;6.16;100.00
54936;BME280;40838;50.676;7.838;2023-04-24T00:57:14;96961.41;;;7.10;100.00
54936;BME280;40838;50.676;7.838;2023-04-24T00:59:41;96964.41;;;7.23;100.00
54936;BME280;40838;50.676;7.838;2023-04-24T01:02:09;96969.09;;;7.31;100.00
54936;BME280;40838;50.676;7.838;2023-04-24T01:04:36;96963.13;;;7.20;100.00
54936;BME280;40838;50.676;7.838;2023-04-24T01:07:04;96971.72;;;7.12;100.00
54936;BME280;40838;50.676;7.838;2023-04-24T01:09:35;96987.59;;;6.50;100.00
54936;BME280;40838;50.676;7.838;2023-04-24T01:12:03;96991.25;;;6.30;100.00
54936;BME280;40838;50.676;7.838;2023-04-24T01:14:31;96979.75;;;6.40;100.00
54936;BME280;40838;50.676;7.838;2023-04-24T01:16:58;96985.69;;;6.32;100.00
54936;BME280;40838;50.676;7.838;2023-04-24T01:19:27;96980.47;;;6.27;100.00
54936;BME280;40838;50.676;7.838;2023-04-24T01:21:54;96979.88;;;6.06;100.00
54936;BME280;40838;50.676;7.838;2023-04-24T01:24:26;96963.13;;;6.15;100.00
54936;BME280;40838;50.676;7.838;2023-04-24T01:26:52;96955.88;;;6.26;100.00
54936;BME280;40838;50.676;7.838;2023-04-24T01:29:20;96951.63;;;6.25;100.00
54936;BME280;40838;50.676;7.838;2023-04-24T01:31:47;96958.94;;;5.85;100.00
54936;BME280;40838;50.676;7.838;2023-04-24T01:34:14;96952.06;;;6.75;100.00
54936;BME280;40838;50.676;7.838;2023-04-24T01:36:42;96957.81;;;6.82;100.00
54936;BME280;40838;50.676;7.838;2023-04-24T01:39:11;96961.59;;;6.95;100.00
54936;BME280;40838;50.676;7.838;2023-04-24T01:41:40;96968.84;;;6.89;100.00
54936;BME280;40838;50.676;7.838;2023-04-24T01:44:07;96962.56;;;6.18;100.00
54936;BME280;40838;50.676;7.838;2023-04-24T01:46:34;96968.78;;;6.76;100.00
54936;BME280;40838;50.676;7.838;2023-04-24T01:49:03;96959.19;;;7.18;100.00
54936;BME280;40838;50.676;7.838;2023-04-24T01:51:31;96975.09;;;6.56;100.00
54936;BME280;40838;50.676;7.838;2023-04-24T01:53:58;96970.16;;;6.49;100.00
54936;BME280;40838;50.676;7.838;2023-04-24T01:56:25;96974.22;;;7.03;100.00
54936;BME280;40838;50.676;7.838;2023-04-24T01:58:57;96976.44;;;7.15;100.00
54936;BME280;40838;50.676;7.838;2023-04-24T02:01:25;96974.44;;;6.88;100.00
54936;BME280;40838;50.676;7.838;2023-04-24T02:03:51;96984.75;;;6.65;100.00
54936;BME280;40838;50.676;7.838;2023-04-24T02:06:18;96983.47;;;6.63;100.00
54936;BME280;40838;50.676;7.838;2023-04-24T02:08:45;96989.53;;;6.63;100.00
54936;BME280;40838;50.676;7.838;2023-04-24T02:11:12;96990.16;;;6.31;100.00
54936;BME280;40838;50.676;7.838;2023-04-24T02:13:39;96988.56;;;6.11;100.00
54936;BME280;40838;50.676;7.838;2023-04-24T02:16:07;96978.09;;;5.96;100.00
54936;BME280;40838;50.676;7.838;2023-04-24T02:18:33;96977.25;;;6.30;100.00
54936;BME280;40838;50.676;7.838;2023-04-24T02:21:00;96974.56;;;5.76;100.00
54936;BME280;40838;50.676;7.838;2023-04-24T02:23:27;96981.63;;;6.39;100.00
54936;BME280;40838;50.676;7.838;2023-04-24T02:25:54;96979.84;;;5.76;100.00
54936;BME280;40838;50.676;7.838;2023-04-24T02:28:21;96979.66;;;6.26;100.00
54936;BME280;40838;50.676;7.838;2023-04-24T02:30:49;96971.63;;;5.78;100.00
54936;BME280;40838;50.676;7.838;2023-04-24T02:33:18;96970.72;;;6.22;100.00
54936;BME280;40838;50.676;7.838;2023-04-24T02:35:45;96979.69;;;5.97;100.00
54936;BME280;40838;50.676;7.838;2023-04-24T02:38:12;96994.13;;;5.75;100.00
54936;BME280;40838;50.676;7.838;2023-04-24T02:40:38;96984.44;;;6.00;100.00
54936;BME280;40838;50.676;7.838;2023-04-24T02:43:05;96991.72;;;6.37;100.00
54936;BME280;40838;50.676;7.838;2023-04-24T02:45:32;96995.97;;;5.75;100.00
54936;BME280;40838;50.676;7.838;2023-04-24T02:48:00;96991.78;;;5.74;100.00
54936;BME280;40838;50.676;7.838;2023-04-24T02:50:28;97012.56;;;6.15;100.00
54936;BME280;40838;50.676;7.838;2023-04-24T02:52:55;97012.75;;;6.23;100.00
54936;BME280;40838;50.676;7.838;2023-04-24T02:55:22;97021.78;;;6.46;100.00
54936;BME280;40838;50.676;7.838;2023-04-24T02:57:49;97015.06;;;6.30;100.00
54936;BME280;40838;50.676;7.838;2023-04-24T03:00:16;97014.31;;;6.73;100.00
54936;BME280;40838;50.676;7.838;2023-04-24T03:02:42;97018.94;;;6.62;100.00
54936;BME280;40838;50.676;7.838;2023-04-24T03:05:09;97023.56;;;5.98;100.00
54936;BME280;40838;50.676;7.838;2023-04-24T03:07:38;97017.75;;;6.25;100.00
54936;BME280;40838;50.676;7.838;2023-04-24T03:10:07;97016.59;;;6.07;100.00
54936;BME280;40838;50.676;7.838;2023-04-24T03:12:33;97017.25;;;6.23;100.00
54936;BME280;40838;50.676;7.838;2023-04-24T03:15:00;97018.06;;;5.94;100.00
54936;BME280;40838;50.676;7.838;2023-04-24T03:17:27;97018.28;;;5.98;100.00
54936;BME280;40838;50.676;7.838;2023-04-24T03:19:54;97012.28;;;5.87;100.00
54936;BME280;40838;50.676;7.838;2023-04-24T03:22:21;97019.63;;;5.17;100.00
54936;BME280;40838;50.676;7.838;2023-04-24T03:24:50;97022.44;;;5.70;100.00
54936;BME280;40838;50.676;7.838;2023-04-24T03:27:18;97022.44;;;5.70;100.00
54936;BME280;40838;50.676;7.838;2023-04-24T03:30:08;97030.47;;;5.54;100.00
54936;BME280;40838;50.676;7.838;2023-04-24T03:32:47;97035.00;;;5.09;100.00
54936;BME280;40838;50.676;7.838;2023-04-24T03:35:19;97035.22;;;5.13;100.00
54936;BME280;40838;50.676;7.838;2023-04-24T03:37:48;97040.81;;;5.11;100.00
54936;BME280;40838;50.676;7.838;2023-04-24T03:40:34;97045.63;;;4.94;100.00
54936;BME280;40838;50.676;7.838;2023-04-24T03:43:05;97043.56;;;4.81;100.00
54936;BME280;40838;50.676;7.838;2023-04-24T03:45:32;97040.91;;;4.86;100.00
54936;BME280;40838;50.676;7.838;2023-04-24T03:47:59;97042.25;;;4.78;100.00
54936;BME280;40838;50.676;7.838;2023-04-24T03:50:26;97046.75;;;4.78;100.00
54936;BME280;40838;50.676;7.838;2023-04-24T03:52:54;97053.94;;;4.57;100.00
54936;BME280;40838;50.676;7.838;2023-04-24T03:55:34;97060.78;;;4.53;100.00
54936;BME280;40838;50.676;7.838;2023-04-24T03:58:01;97059.47;;;4.60;100.00
54936;BME280;40838;50.676;7.838;2023-04-24T04:00:28;97071.41;;;4.27;100.00
54936;BME280;40838;50.676;7.838;2023-04-24T04:03:18;97074.56;;;4.19;100.00
54936;BME280;40838;50.676;7.838;2023-04-24T04:05:45;97088.53;;;4.09;100.00
54936;BME280;40838;50.676;7.838;2023-04-24T04:08:12;97089.84;;;4.17;100.00
54936;BME280;40838;50.676;7.838;2023-04-24T04:10:40;97088.53;;;4.45;100.00
54936;BME280;40838;50.676;7.838;2023-04-24T04:13:07;97096.72;;;4.38;100.00
54936;BME280;40838;50.676;7.838;2023-04-24T04:15:35;97096.94;;;3.91;100.00
54936;BME280;40838;50.676;7.838;2023-04-24T04:18:02;97097.22;;;4.10;100.00
54936;BME280;40838;50.676;7.838;2023-04-24T04:20:30;97091.94;;;3.84;100.00
54936;BME280;40838;50.676;7.838;2023-04-24T04:22:56;97104.06;;;3.90;100.00
54936;BME280;40838;50.676;7.838;2023-04-24T04:25:34;97096.69;;;3.82;100.00
54936;BME280;40838;50.676;7.838;2023-04-24T04:28:03;97098.00;;;4.00;100.00
54936;BME280;40838;50.676;7.838;2023-04-24T04:30:30;97095.63;;;4.09;100.00
54936;BME280;40838;50.676;7.838;2023-04-24T04:33:01;97101.97;;;4.03;100.00
54936;BME280;40838;50.676;7.838;2023-04-24T04:35:29;97096.97;;;4.01;100.00
54936;BME280;40838;50.676;7.838;2023-04-24T04:37:57;97098.81;;;4.36;100.00
54936;BME280;40838;50.676;7.838;2023-04-24T04:40:45;97095.34;;;4.20;100.00
54936;BME280;40838;50.676;7.838;2023-04-24T04:43:15;97094.81;;;4.59;100.00
54936;BME280;40838;50.676;7.838;2023-04-24T04:45:50;97095.91;;;4.43;100.00
54936;BME280;40838;50.676;7.838;2023-04-24T04:48:32;97098.78;;;4.57;100.00
54936;BME280;40838;50.676;7.838;2023-04-24T04:51:01;97095.84;;;4.63;100.00
54936;BME280;40838;50.676;7.838;2023-04-24T04:53:28;97086.81;;;4.85;100.00
54936;BME280;40838;50.676;7.838;2023-04-24T04:55:58;97096.09;;;4.82;100.00
54936;BME280;40838;50.676;7.838;2023-04-24T04:58:37;97092.84;;;4.96;100.00
54936;BME280;40838;50.676;7.838;2023-04-24T05:01:07;97101.38;;;4.67;100.00
54936;BME280;40838;50.676;7.838;2023-04-24T05:03:39;97111.53;;;5.09;100.00
54936;BME280;40838;50.676;7.838;2023-04-24T05:06:09;97110.84;;;4.88;100.00
54936;BME280;40838;50.676;7.838;2023-04-24T05:08:38;97110.78;;;4.94;100.00
54936;BME280;40838;50.676;7.838;2023-04-24T05:11:08;97121.47;;;3.86;100.00
54936;BME280;40838;50.676;7.838;2023-04-24T05:13:38;97115.66;;;4.56;100.00
54936;BME280;40838;50.676;7.838;2023-04-24T05:16:26;97122.00;;;4.50;100.00
54936;BME280;40838;50.676;7.838;2023-04-24T05:18:54;97129.31;;;3.61;100.00
54936;BME280;40838;50.676;7.838;2023-04-24T05:21:27;97119.88;;;4.47;100.00
54936;BME280;40838;50.676;7.838;2023-04-24T05:23:54;97111.56;;;5.04;100.00
54936;BME280;40838;50.676;7.838;2023-04-24T05:26:47;97125.44;;;5.35;100.00
54936;BME280;40838;50.676;7.838;2023-04-24T05:29:18;97130.56;;;5.06;100.00
54936;BME280;40838;50.676;7.838;2023-04-24T05:31:45;97131.66;;;5.55;100.00
54936;BME280;40838;50.676;7.838;2023-04-24T05:34:12;97125.44;;;4.45;100.00
54936;BME280;40838;50.676;7.838;2023-04-24T05:36:43;97131.03;;;5.24;100.00
54936;BME280;40838;50.676;7.838;2023-04-24T05:39:10;97144.63;;;4.76;100.00
54936;BME280;40838;50.676;7.838;2023-04-24T05:41:37;97145.88;;;5.09;100.00
54936;BME280;40838;50.676;7.838;2023-04-24T05:44:03;97147.47;;;5.65;100.00
54936;BME280;40838;50.676;7.838;2023-04-24T05:46:32;97154.09;;;4.93;100.00
54936;BME280;40838;50.676;7.838;2023-04-24T05:48:58;97170.47;;;4.95;100.00
54936;BME280;40838;50.676;7.838;2023-04-24T05:51:25;97150.72;;;4.26;100.00
54936;BME280;40838;50.676;7.838;2023-04-24T05:53:52;97153.94;;;4.28;100.00
54936;BME280;40838;50.676;7.838;2023-04-24T05:56:20;97153.91;;;4.43;100.00
54936;BME280;40838;50.676;7.838;2023-04-24T05:58:48;97156.50;;;4.17;100.00
54936;BME280;40838;50.676;7.838;2023-04-24T06:01:15;97156.97;;;5.01;100.00
54936;BME280;40838;50.676;7.838;2023-04-24T06:03:48;97163.94;;;4.51;100.00
54936;BME280;40838;50.676;7.838;2023-04-24T06:06:15;97150.72;;;4.72;100.00
54936;BME280;40838;50.676;7.838;2023-04-24T06:08:42;97150.47;;;4.17;100.00
54936;BME280;40838;50.676;7.838;2023-04-24T06:11:10;97165.00;;;4.45;100.00
54936;BME280;40838;50.676;7.838;2023-04-24T06:13:38;97158.69;;;4.36;100.00
54936;BME280;40838;50.676;7.838;2023-04-24T06:16:34;97154.44;;;4.45;100.00
54936;BME280;40838;50.676;7.838;2023-04-24T06:19:10;97151.72;;;4.91;100.00
54936;BME280;40838;50.676;7.838;2023-04-24T06:21:37;97159.91;;;5.00;100.00
54936;BME280;40838;50.676;7.838;2023-04-24T06:24:04;97158.06;;;4.85;100.00
54936;BME280;40838;50.676;7.838;2023-04-24T06:26:31;97159.13;;;4.84;100.00
54936;BME280;40838;50.676;7.838;2023-04-24T06:28:59;97166.53;;;4.20;100.00
54936;BME280;40838;50.676;7.838;2023-04-24T06:31:26;97165.38;;;5.08;100.00
54936;BME280;40838;50.676;7.838;2023-04-24T06:33:53;97157.50;;;6.08;100.00
54936;BME280;40838;50.676;7.838;2023-04-24T06:36:21;97150.19;;;8.29;96.97
54936;BME280;40838;50.676;7.838;2023-04-24T06:38:48;97150.94;;;10.54;80.87
54936;BME280;40838;50.676;7.838;2023-04-24T06:41:15;97154.97;;;8.79;91.68
54936;BME280;40838;50.676;7.838;2023-04-24T06:43:42;97157.78;;;7.84;98.52
54936;BME280;40838;50.676;7.838;2023-04-24T06:46:09;97152.47;;;7.47;100.00
54936;BME280;40838;50.676;7.838;2023-04-24T06:48:36;97157.63;;;5.92;100.00
54936;BME280;40838;50.676;7.838;2023-04-24T06:51:03;97147.38;;;5.86;100.00
54936;BME280;40838;50.676;7.838;2023-04-24T06:53:31;97149.66;;;8.93;92.43
54936;BME280;40838;50.676;7.838;2023-04-24T06:55:57;97151.97;;;7.82;96.91
54936;BME280;40838;50.676;7.838;2023-04-24T06:58:24;97154.03;;;6.76;100.00
54936;BME280;40838;50.676;7.838;2023-04-24T07:00:51;97149.75;;;5.77;100.00
54936;BME280;40838;50.676;7.838;2023-04-24T07:03:18;97145.66;;;6.34;100.00
54936;BME280;40838;50.676;7.838;2023-04-24T07:05:45;97126.31;;;5.10;100.00
54936;BME280;40838;50.676;7.838;2023-04-24T07:08:13;97142.91;;;5.21;100.00
54936;BME280;40838;50.676;7.838;2023-04-24T07:10:43;97140.94;;;4.67;100.00
54936;BME280;40838;50.676;7.838;2023-04-24T07:13:10;97135.06;;;6.05;100.00
54936;BME280;40838;50.676;7.838;2023-04-24T07:15:37;97139.53;;;6.10;100.00
54936;BME280;40838;50.676;7.838;2023-04-24T07:18:05;97134.13;;;5.41;100.00
54936;BME280;40838;50.676;7.838;2023-04-24T07:20:32;97136.03;;;5.20;100.00
54936;BME280;40838;50.676;7.838;2023-04-24T07:22:59;97142.66;;;6.17;100.00
54936;BME280;40838;50.676;7.838;2023-04-24T07:25:26;97140.66;;;5.98;100.00
54936;BME280;40838;50.676;7.838;2023-04-24T07:27:54;97155.84;;;5.72;100.00
54936;BME280;40838;50.676;7.838;2023-04-24T07:30:21;97153.84;;;5.54;100.00
54936;BME280;40838;50.676;7.838;2023-04-24T07:32:48;97154.81;;;5.19;100.00
54936;BME280;40838;50.676;7.838;2023-04-24T07:35:14;97162.19;;;5.76;100.00
54936;BME280;40838;50.676;7.838;2023-04-24T07:37:41;97156.00;;;6.31;100.00
54936;BME280;40838;50.676;7.838;2023-04-24T07:40:11;97166.94;;;6.53;100.00
54936;BME280;40838;50.676;7.838;2023-04-24T07:42:38;97164.84;;;5.17;100.00
54936;BME280;40838;50.676;7.838;2023-04-24T07:45:07;97164.19;;;5.50;100.00
54936;BME280;40838;50.676;7.838;2023-04-24T07:47:34;97164.53;;;5.88;100.00
54936;BME280;40838;50.676;7.838;2023-04-24T07:50:02;97177.31;;;5.61;100.00
54936;BME280;40838;50.676;7.838;2023-04-24T07:52:28;97177.50;;;5.20;100.00
54936;BME280;40838;50.676;7.838;2023-04-24T07:54:55;97171.38;;;5.84;100.00
54936;BME280;40838;50.676;7.838;2023-04-24T07:57:24;97180.31;;;5.98;100.00
54936;BME280;40838;50.676;7.838;2023-04-24T07:59:50;97182.69;;;5.40;100.00
54936;BME280;40838;50.676;7.838;2023-04-24T08:02:19;97188.25;;;5.93;100.00
54936;BME280;40838;50.676;7.838;2023-04-24T08:04:47;97186.31;;;5.60;100.00
54936;BME280;40838;50.676;7.838;2023-04-24T08:07:14;97188.97;;;5.54;100.00
54936;BME280;40838;50.676;7.838;2023-04-24T08:09:41;97188.38;;;5.03;100.00
54936;BME280;40838;50.676;7.838;2023-04-24T08:12:08;97204.28;;;5.57;100.00
54936;BME280;40838;50.676;7.838;2023-04-24T08:14:37;97193.25;;;5.45;100.00
54936;BME280;40838;50.676;7.838;2023-04-24T08:17:04;97203.75;;;6.10;100.00
54936;BME280;40838;50.676;7.838;2023-04-24T08:19:34;97205.56;;;4.85;100.00
54936;BME280;40838;50.676;7.838;2023-04-24T08:22:02;97206.88;;;5.73;100.00
54936;BME280;40838;50.676;7.838;2023-04-24T08:24:29;97202.59;;;5.82;100.00
54936;BME280;40838;50.676;7.838;2023-04-24T08:26:56;97213.72;;;5.74;100.00
54936;BME280;40838;50.676;7.838;2023-04-24T08:29:24;97219.53;;;4.96;100.00
54936;BME280;40838;50.676;7.838;2023-04-24T08:31:52;97216.53;;;5.33;100.00
54936;BME280;40838;50.676;7.838;2023-04-24T08:34:19;97220.44;;;5.51;100.00
54936;BME280;40838;50.676;7.838;2023-04-24T08:36:48;97213.41;;;5.21;100.00
54936;BME280;40838;50.676;7.838;2023-04-24T08:39:15;97224.72;;;5.31;100.00
54936;BME280;40838;50.676;7.838;2023-04-24T08:41:45;97221.88;;;5.83;100.00
54936;BME280;40838;50.676;7.838;2023-04-24T08:44:15;97225.97;;;5.54;100.00
54936;BME280;40838;50.676;7.838;2023-04-24T08:46:43;97228.97;;;5.22;100.00
54936;BME280;40838;50.676;7.838;2023-04-24T08:49:11;97222.94;;;5.06;100.00
54936;BME280;40838;50.676;7.838;2023-04-24T08:51:39;97228.47;;;5.15;100.00
54936;BME280;40838;50.676;7.838;2023-04-24T08:54:08;97234.97;;;5.48;100.00
54936;BME280;40838;50.676;7.838;2023-04-24T08:56:36;97233.00;;;4.89;100.00
54936;BME280;40838;50.676;7.838;2023-04-24T08:59:05;97233.25;;;5.03;100.00
54936;BME280;40838;50.676;7.838;2023-04-24T09:01:32;97239.88;;;4.54;100.00
54936;BME280;40838;50.676;7.838;2023-04-24T09:04:02;97253.56;;;5.02;100.00
54936;BME280;40838;50.676;7.838;2023-04-24T09:06:30;97257.81;;;5.03;100.00
54936;BME280;40838;50.676;7.838;2023-04-24T09:08:59;97252.00;;;5.01;100.00
54936;BME280;40838;50.676;7.838;2023-04-24T09:11:29;97261.75;;;4.90;100.00
54936;BME280;40838;50.676;7.838;2023-04-24T09:13:56;97272.53;;;5.20;100.00
54936;BME280;40838;50.676;7.838;2023-04-24T09:16:25;97280.78;;;4.57;100.00
54936;BME280;40838;50.676;7.838;2023-04-24T09:18:53;97284.19;;;5.03;100.00
54936;BME280;40838;50.676;7.838;2023-04-24T09:21:21;97285.81;;;4.74;100.00
54936;BME280;40838;50.676;7.838;2023-04-24T09:23:57;97293.59;;;5.55;100.00
54936;BME280;40838;50.676;7.838;2023-04-24T09:26:25;97288.25;;;5.71;100.00
54936;BME280;40838;50.676;7.838;2023-04-24T09:28:53;97305.44;;;5.68;100.00
54936;BME280;40838;50.676;7.838;2023-04-24T09:31:20;97320.59;;;4.60;100.00
54936;BME280;40838;50.676;7.838;2023-04-24T09:33:54;97323.78;;;4.73;100.00
54936;BME280;40838;50.676;7.838;2023-04-24T09:36:27;97334.84;;;5.41;100.00
54936;BME280;40838;50.676;7.838;2023-04-24T09:38:57;97352.25;;;4.50;100.00
54936;BME280;40838;50.676;7.838;2023-04-24T09:41:25;97363.28;;;4.37;100.00
54936;BME280;40838;50.676;7.838;2023-04-24T09:43:55;97370.16;;;4.43;100.00
54936;BME280;40838;50.676;7.838;2023-04-24T09:46:29;97381.34;;;4.08;100.00
54936;BME280;40838;50.676;7.838;2023-04-24T09:48:57;97384.13;;;4.38;100.00
54936;BME280;40838;50.676;7.838;2023-04-24T09:51:34;97388.41;;;4.60;100.00
54936;BME280;40838;50.676;7.838;2023-04-24T09:54:02;97387.34;;;4.61;100.00
54936;BME280;40838;50.676;7.838;2023-04-24T09:56:32;97399.50;;;4.62;100.00
54936;BME280;40838;50.676;7.838;2023-04-24T09:59:05;97396.59;;;4.69;100.00
54936;BME280;40838;50.676;7.838;2023-04-24T10:01:33;97398.63;;;4.46;100.00
54936;BME280;40838;50.676;7.838;2023-04-24T10:04:00;97399.78;;;4.96;100.00
54936;BME280;40838;50.676;7.838;2023-04-24T10:06:32;97397.16;;;5.01;100.00
54936;BME280;40838;50.676;7.838;2023-04-24T10:09:00;97400.88;;;5.10;100.00
54936;BME280;40838;50.676;7.838;2023-04-24T10:11:27;97406.09;;;4.85;100.00
54936;BME280;40838;50.676;7.838;2023-04-24T10:13:54;97408.47;;;4.81;100.00
54936;BME280;40838;50.676;7.838;2023-04-24T10:16:24;97409.56;;;4.90;100.00
54936;BME280;40838;50.676;7.838;2023-04-24T10:18:52;97411.41;;;5.05;100.00
54936;BME280;40838;50.676;7.838;2023-04-24T10:21:19;97410.91;;;5.03;100.00
54936;BME280;40838;50.676;7.838;2023-04-24T10:23:49;97412.75;;;5.03;100.00
54936;BME280;40838;50.676;7.838;2023-04-24T10:26:17;97412.22;;;5.31;100.00
54936;BME280;40838;50.676;7.838;2023-04-24T10:28:46;97426.69;;;4.78;100.00
54936;BME280;40838;50.676;7.838;2023-04-24T10:31:13;97417.06;;;4.31;100.00
54936;BME280;40838;50.676;7.838;2023-04-24T10:33:42;97434.00;;;4.55;100.00
54936;BME280;40838;50.676;7.838;2023-04-24T10:36:10;97436.50;;;4.25;100.00
54936;BME280;40838;50.676;7.838;2023-04-24T10:38:40;97430.59;;;4.55;100.00
54936;BME280;40838;50.676;7.838;2023-04-24T10:41:09;97442.75;;;4.66;100.00
54936;BME280;40838;50.676;7.838;2023-04-24T10:43:41;97437.44;;;3.98;100.00
54936;BME280;40838;50.676;7.838;2023-04-24T10:46:09;97447.31;;;4.23;100.00
54936;BME280;40838;50.676;7.838;2023-04-24T10:48:42;97444.53;;;4.45;100.00
54936;BME280;40838;50.676;7.838;2023-04-24T10:51:15;97452.09;;;5.09;100.00
54936;BME280;40838;50.676;7.838;2023-04-24T10:53:41;97465.00;;;5.01;100.00
54936;BME280;40838;50.676;7.838;2023-04-24T10:56:09;97465.28;;;5.04;100.00
54936;BME280;40838;50.676;7.838;2023-04-24T10:58:38;97463.66;;;4.93;100.00
54936;BME280;40838;50.676;7.838;2023-04-24T11:01:06;97464.75;;;4.97;100.00
54936;BME280;40838;50.676;7.838;2023-04-24T11:03:34;97468.44;;;5.17;100.00
54936;BME280;40838;50.676;7.838;2023-04-24T11:06:04;97476.94;;;5.39;100.00
54936;BME280;40838;50.676;7.838;2023-04-24T11:08:36;97474.78;;;5.00;100.00
54936;BME280;40838;50.676;7.838;2023-04-24T11:11:08;97479.16;;;4.59;100.00
54936;BME280;40838;50.676;7.838;2023-04-24T11:14:01;97481.50;;;4.50;100.00
54936;BME280;40838;50.676;7.838;2023-04-24T11:16:30;97484.56;;;5.20;100.00
54936;BME280;40838;50.676;7.838;2023-04-24T11:19:04;97483.25;;;5.12;100.00
54936;BME280;40838;50.676;7.838;2023-04-24T11:21:42;97489.91;;;5.87;100.00
54936;BME280;40838;50.676;7.838;2023-04-24T11:24:29;97486.44;;;5.81;100.00
54936;BME280;40838;50.676;7.838;2023-04-24T11:26:58;97490.41;;;5.43;100.00
54936;BME280;40838;50.676;7.838;2023-04-24T11:29:58;97487.22;;;5.25;100.00
54936;BME280;40838;50.676;7.838;2023-04-24T11:32:27;97496.97;;;5.20;100.00
54936;BME280;40838;50.676;7.838;2023-04-24T11:34:55;97493.28;;;5.26;100.00
54936;BME280;40838;50.676;7.838;2023-04-24T11:37:26;97498.00;;;4.98;100.00
54936;BME280;40838;50.676;7.838;2023-04-24T11:39:53;97499.00;;;4.82;100.00
54936;BME280;40838;50.676;7.838;2023-04-24T11:42:21;97495.41;;;5.19;100.00
54936;BME280;40838;50.676;7.838;2023-04-24T11:44:49;97498.09;;;5.65;100.00
54936;BME280;40838;50.676;7.838;2023-04-24T11:47:16;97495.97;;;5.56;100.00
54936;BME280;40838;50.676;7.838;2023-04-24T11:49:43;97497.78;;;5.41;100.00
54936;BME280;40838;50.676;7.838;2023-04-24T11:52:10;97510.25;;;5.91;100.00
54936;BME280;40838;50.676;7.838;2023-04-24T11:54:47;97518.16;;;5.76;100.00
54936;BME280;40838;50.676;7.838;2023-04-24T11:57:13;97502.56;;;5.74;100.00
54936;BME280;40838;50.676;7.838;2023-04-24T11:59:40;97495.59;;;7.49;100.00
54936;BME280;40838;50.676;7.838;2023-04-24T12:02:07;97503.09;;;7.71;100.00
54936;BME280;40838;50.676;7.838;2023-04-24T12:04:40;97497.06;;;7.26;100.00
54936;BME280;40838;50.676;7.838;2023-04-24T12:07:07;97497.59;;;7.23;100.00
54936;BME280;40838;50.676;7.838;2023-04-24T12:09:46;97490.91;;;8.28;100.00
54936;BME280;40838;50.676;7.838;2023-04-24T12:12:17;97496.91;;;7.52;100.00
54936;BME280;40838;50.676;7.838;2023-04-24T12:14:48;97504.44;;;6.80;100.00
54936;BME280;40838;50.676;7.838;2023-04-24T12:17:15;97504.41;;;6.90;100.00
54936;BME280;40838;50.676;7.838;2023-04-24T12:19:46;97491.09;;;7.50;100.00
54936;BME280;40838;50.676;7.838;2023-04-24T12:22:14;97501.47;;;6.27;100.00
54936;BME280;40838;50.676;7.838;2023-04-24T12:24:58;97507.03;;;6.05;100.00
54936;BME280;40838;50.676;7.838;2023-04-24T12:27:28;97511.78;;;6.23;100.00
54936;BME280;40838;50.676;7.838;2023-04-24T12:29:59;97525.28;;;5.80;100.00
54936;BME280;40838;50.676;7.838;2023-04-24T12:32:26;97512.53;;;6.34;100.00
54936;BME280;40838;50.676;7.838;2023-04-24T12:34:55;97513.41;;;6.89;100.00
54936;BME280;40838;50.676;7.838;2023-04-24T12:37:24;97516.28;;;6.92;100.00
54936;BME280;40838;50.676;7.838;2023-04-24T12:40:03;97526.94;;;6.87;100.00
54936;BME280;40838;50.676;7.838;2023-04-24T12:42:31;97519.22;;;6.00;100.00
54936;BME280;40838;50.676;7.838;2023-04-24T12:44:59;97510.19;;;6.22;100.00
54936;BME280;40838;50.676;7.838;2023-04-24T12:47:27;97533.50;;;6.15;100.00
54936;BME280;40838;50.676;7.838;2023-04-24T12:49:55;97530.34;;;5.97;100.00
54936;BME280;40838;50.676;7.838;2023-04-24T12:52:22;97540.88;;;5.77;100.00
54936;BME280;40838;50.676;7.838;2023-04-24T12:54:49;97545.59;;;5.24;100.00
54936;BME280;40838;50.676;7.838;2023-04-24T12:57:17;97532.41;;;5.75;100.00
54936;BME280;40838;50.676;7.838;2023-04-24T12:59:44;97538.25;;;5.82;100.00
54936;BME280;40838;50.676;7.838;2023-04-24T13:02:11;97527.41;;;6.04;100.00
54936;BME280;40838;50.676;7.838;2023-04-24T13:04:38;97535.31;;;6.19;100.00
54936;BME280;40838;50.676;7.838;2023-04-24T13:07:05;97545.38;;;5.66;100.00
54936;BME280;40838;50.676;7.838;2023-04-24T13:09:34;97539.84;;;5.93;100.00